sensor_id;sensor_type;location;lat;lon;timestamp;P1;durP1;ratioP1;P2;durP2;ratioP2
12869;SDS011;6503;48.572;13.460;2022-12-07T00:00:55;10.65;;;7.15;;
12869;SDS011;6503;48.572;13.460;2022-12-07T00:03:24;11.10;;;7.90;;
12869;SDS011;6503;48.572;13.460;2022-12-07T00:05:52;12.10;;;7.55;;
12869;SDS011;6503;48.572;13.460;2022-12-07T00:08:23;10.07;;;6.93;;
12869;SDS011;6503;48.572;13.460;2022-12-07T00:10:51;9.70;;;7.15;;
12869;SDS011;6503;48.572;13.460;2022-12-07T00:13:19;11.82;;;7.40;;
12869;SDS011;6503;48.572;13.460;2022-12-07T00:15:49;13.93;;;8.70;;
12869;SDS011;6503;48.572;13.460;2022-12-07T00:18:17;12.82;;;8.48;;
12869;SDS011;6503;48.572;13.460;2022-12-07T00:20:44;12.18;;;7.72;;
12869;SDS011;6503;48.572;13.460;2022-12-07T00:23:11;10.32;;;7.85;;
12869;SDS011;6503;48.572;13.460;2022-12-07T00:25:38;10.90;;;7.88;;
12869;SDS011;6503;48.572;13.460;2022-12-07T00:28:05;15.02;;;8.35;;
12869;SDS011;6503;48.572;13.460;2022-12-07T00:30:34;13.18;;;9.05;;
12869;SDS011;6503;48.572;13.460;2022-12-07T00:33:03;12.35;;;8.20;;
12869;SDS011;6503;48.572;13.460;2022-12-07T00:35:33;12.00;;;8.68;;
12869;SDS011;6503;48.572;13.460;2022-12-07T00:38:00;14.55;;;8.93;;
12869;SDS011;6503;48.572;13.460;2022-12-07T00:40:27;15.25;;;9.70;;
12869;SDS011;6503;48.572;13.460;2022-12-07T00:42:55;14.07;;;9.35;;
12869;SDS011;6503;48.572;13.460;2022-12-07T00:45:22;15.13;;;9.02;;
12869;SDS011;6503;48.572;13.460;2022-12-07T00:47:49;14.27;;;9.43;;
12869;SDS011;6503;48.572;13.460;2022-12-07T00:50:18;12.65;;;7.93;;
12869;SDS011;6503;48.572;13.460;2022-12-07T00:52:47;14.02;;;8.85;;
12869;SDS011;6503;48.572;13.460;2022-12-07T00:55:14;12.25;;;8.43;;
12869;SDS011;6503;48.572;13.460;2022-12-07T00:57:41;15.25;;;8.90;;
12869;SDS011;6503;48.572;13.460;2022-12-07T01:00:12;14.05;;;9.38;;
12869;SDS011;6503;48.572;13.460;2022-12-07T01:02:39;12.93;;;8.90;;
12869;SDS011;6503;48.572;13.460;2022-12-07T01:05:07;11.90;;;8.65;;
12869;SDS011;6503;48.572;13.460;2022-12-07T01:07:36;13.18;;;9.18;;
12869;SDS011;6503;48.572;13.460;2022-12-07T01:10:03;11.57;;;8.20;;
12869;SDS011;6503;48.572;13.460;2022-12-07T01:12:31;11.32;;;7.80;;
12869;SDS011;6503;48.572;13.460;2022-12-07T01:15:00;10.80;;;7.60;;
12869;SDS011;6503;48.572;13.460;2022-12-07T01:17:29;13.35;;;7.90;;
12869;SDS011;6503;48.572;13.460;2022-12-07T01:19:58;10.77;;;7.53;;
12869;SDS011;6503;48.572;13.460;2022-12-07T01:22:26;11.20;;;8.13;;
12869;SDS011;6503;48.572;13.460;2022-12-07T01:24:56;11.57;;;7.57;;
12869;SDS011;6503;48.572;13.460;2022-12-07T01:27:25;12.27;;;7.80;;
12869;SDS011;6503;48.572;13.460;2022-12-07T01:29:56;11.05;;;7.38;;
12869;SDS011;6503;48.572;13.460;2022-12-07T01:32:23;11.20;;;7.47;;
12869;SDS011;6503;48.572;13.460;2022-12-07T01:34:50;10.65;;;7.57;;
12869;SDS011;6503;48.572;13.460;2022-12-07T01:37:17;11.25;;;8.18;;
12869;SDS011;6503;48.572;13.460;2022-12-07T01:39:44;11.27;;;7.50;;
12869;SDS011;6503;48.572;13.460;2022-12-07T01:42:16;11.13;;;7.80;;
12869;SDS011;6503;48.572;13.460;2022-12-07T01:47:48;11.50;;;7.43;;
12869;SDS011;6503;48.572;13.460;2022-12-07T01:50:21;10.15;;;7.72;;
12869;SDS011;6503;48.572;13.460;2022-12-07T01:52:54;10.15;;;7.28;;
12869;SDS011;6503;48.572;13.460;2022-12-07T01:55:24;11.35;;;7.45;;
12869;SDS011;6503;48.572;13.460;2022-12-07T01:57:54;11.57;;;7.80;;
12869;SDS011;6503;48.572;13.460;2022-12-07T02:00:22;11.00;;;7.80;;
12869;SDS011;6503;48.572;13.460;2022-12-07T02:02:51;12.25;;;7.65;;
12869;SDS011;6503;48.572;13.460;2022-12-07T02:05:23;11.80;;;7.78;;
12869;SDS011;6503;48.572;13.460;2022-12-07T02:07:53;9.38;;;7.00;;
12869;SDS011;6503;48.572;13.460;2022-12-07T02:10:25;11.25;;;7.68;;
12869;SDS011;6503;48.572;13.460;2022-12-07T02:12:55;12.65;;;8.10;;
12869;SDS011;6503;48.572;13.460;2022-12-07T02:15:25;12.13;;;8.25;;
12869;SDS011;6503;48.572;13.460;2022-12-07T02:18:00;11.68;;;7.53;;
12869;SDS011;6503;48.572;13.460;2022-12-07T02:20:33;12.95;;;8.25;;
12869;SDS011;6503;48.572;13.460;2022-12-07T02:26:19;10.55;;;7.50;;
12869;SDS011;6503;48.572;13.460;2022-12-07T02:29:25;13.15;;;8.23;;
12869;SDS011;6503;48.572;13.460;2022-12-07T02:32:00;11.93;;;8.10;;
12869;SDS011;6503;48.572;13.460;2022-12-07T02:34:35;13.38;;;8.93;;
12869;SDS011;6503;48.572;13.460;2022-12-07T02:37:09;11.52;;;7.88;;
12869;SDS011;6503;48.572;13.460;2022-12-07T02:39:47;12.15;;;7.88;;
12869;SDS011;6503;48.572;13.460;2022-12-07T02:42:25;13.15;;;8.38;;
12869;SDS011;6503;48.572;13.460;2022-12-07T02:44:59;17.25;;;10.15;;
12869;SDS011;6503;48.572;13.460;2022-12-07T02:47:27;12.43;;;8.35;;
12869;SDS011;6503;48.572;13.460;2022-12-07T02:49:58;12.88;;;8.73;;
12869;SDS011;6503;48.572;13.460;2022-12-07T02:52:29;11.70;;;8.45;;
12869;SDS011;6503;48.572;13.460;2022-12-07T02:54:56;13.65;;;8.48;;
12869;SDS011;6503;48.572;13.460;2022-12-07T03:00:17;13.10;;;8.57;;
12869;SDS011;6503;48.572;13.460;2022-12-07T03:02:53;14.57;;;9.25;;
12869;SDS011;6503;48.572;13.460;2022-12-07T03:05:28;14.98;;;9.18;;
12869;SDS011;6503;48.572;13.460;2022-12-07T03:08:15;14.82;;;8.93;;
12869;SDS011;6503;48.572;13.460;2022-12-07T03:10:50;16.70;;;9.35;;
12869;SDS011;6503;48.572;13.460;2022-12-07T03:13:22;14.13;;;9.73;;
12869;SDS011;6503;48.572;13.460;2022-12-07T03:15:55;16.73;;;9.05;;
12869;SDS011;6503;48.572;13.460;2022-12-07T03:18:32;12.65;;;8.50;;
12869;SDS011;6503;48.572;13.460;2022-12-07T03:21:09;14.55;;;9.07;;
12869;SDS011;6503;48.572;13.460;2022-12-07T03:23:43;15.40;;;9.35;;
12869;SDS011;6503;48.572;13.460;2022-12-07T03:26:13;15.77;;;9.55;;
12869;SDS011;6503;48.572;13.460;2022-12-07T03:28:45;14.10;;;8.90;;
12869;SDS011;6503;48.572;13.460;2022-12-07T03:31:23;14.18;;;8.90;;
12869;SDS011;6503;48.572;13.460;2022-12-07T03:33:58;14.10;;;9.02;;
12869;SDS011;6503;48.572;13.460;2022-12-07T03:46:48;12.32;;;8.02;;
12869;SDS011;6503;48.572;13.460;2022-12-07T03:49:23;13.07;;;8.65;;
12869;SDS011;6503;48.572;13.460;2022-12-07T03:52:00;13.77;;;9.48;;
12869;SDS011;6503;48.572;13.460;2022-12-07T03:54:33;12.10;;;8.27;;
12869;SDS011;6503;48.572;13.460;2022-12-07T03:57:05;12.48;;;8.88;;
12869;SDS011;6503;48.572;13.460;2022-12-07T03:59:36;10.38;;;7.88;;
12869;SDS011;6503;48.572;13.460;2022-12-07T04:02:06;13.85;;;8.73;;
12869;SDS011;6503;48.572;13.460;2022-12-07T04:04:34;12.63;;;8.90;;
12869;SDS011;6503;48.572;13.460;2022-12-07T04:07:05;14.02;;;8.57;;
12869;SDS011;6503;48.572;13.460;2022-12-07T04:09:33;11.27;;;8.02;;
12869;SDS011;6503;48.572;13.460;2022-12-07T04:12:01;13.45;;;8.52;;
12869;SDS011;6503;48.572;13.460;2022-12-07T04:14:28;13.50;;;8.48;;
12869;SDS011;6503;48.572;13.460;2022-12-07T04:16:57;12.23;;;8.27;;
12869;SDS011;6503;48.572;13.460;2022-12-07T04:19:28;13.27;;;9.02;;
12869;SDS011;6503;48.572;13.460;2022-12-07T04:21:59;13.23;;;9.05;;
12869;SDS011;6503;48.572;13.460;2022-12-07T04:24:29;11.90;;;7.88;;
12869;SDS011;6503;48.572;13.460;2022-12-07T04:26:57;11.70;;;8.02;;
12869;SDS011;6503;48.572;13.460;2022-12-07T04:29:24;12.75;;;8.80;;
12869;SDS011;6503;48.572;13.460;2022-12-07T04:31:52;12.50;;;8.13;;
12869;SDS011;6503;48.572;13.460;2022-12-07T04:34:19;13.75;;;8.50;;
12869;SDS011;6503;48.572;13.460;2022-12-07T04:36:50;11.90;;;8.38;;
12869;SDS011;6503;48.572;13.460;2022-12-07T04:39:21;13.90;;;8.93;;
12869;SDS011;6503;48.572;13.460;2022-12-07T04:41:49;13.65;;;8.63;;
12869;SDS011;6503;48.572;13.460;2022-12-07T04:44:18;11.63;;;8.15;;
12869;SDS011;6503;48.572;13.460;2022-12-07T04:46:46;12.15;;;8.18;;
12869;SDS011;6503;48.572;13.460;2022-12-07T04:49:14;13.80;;;8.82;;
12869;SDS011;6503;48.572;13.460;2022-12-07T04:51:43;13.68;;;9.00;;
12869;SDS011;6503;48.572;13.460;2022-12-07T04:54:13;12.20;;;8.73;;
12869;SDS011;6503;48.572;13.460;2022-12-07T04:56:44;13.77;;;9.20;;
12869;SDS011;6503;48.572;13.460;2022-12-07T04:59:14;12.00;;;8.63;;
12869;SDS011;6503;48.572;13.460;2022-12-07T05:01:44;13.82;;;9.02;;
12869;SDS011;6503;48.572;13.460;2022-12-07T05:04:16;11.70;;;8.83;;
12869;SDS011;6503;48.572;13.460;2022-12-07T05:06:48;12.07;;;8.57;;
12869;SDS011;6503;48.572;13.460;2022-12-07T05:09:21;13.10;;;9.27;;
12869;SDS011;6503;48.572;13.460;2022-12-07T05:11:48;14.43;;;9.40;;
12869;SDS011;6503;48.572;13.460;2022-12-07T05:14:17;17.15;;;10.32;;
12869;SDS011;6503;48.572;13.460;2022-12-07T05:16:47;14.73;;;10.50;;
12869;SDS011;6503;48.572;13.460;2022-12-07T05:19:19;13.10;;;9.15;;
12869;SDS011;6503;48.572;13.460;2022-12-07T05:21:47;16.48;;;9.95;;
12869;SDS011;6503;48.572;13.460;2022-12-07T05:24:15;14.20;;;10.75;;
12869;SDS011;6503;48.572;13.460;2022-12-07T05:26:45;14.35;;;10.23;;
12869;SDS011;6503;48.572;13.460;2022-12-07T05:31:42;15.02;;;10.15;;
12869;SDS011;6503;48.572;13.460;2022-12-07T05:34:12;14.35;;;9.77;;
12869;SDS011;6503;48.572;13.460;2022-12-07T05:36:42;14.18;;;9.80;;
12869;SDS011;6503;48.572;13.460;2022-12-07T05:39:09;16.77;;;11.27;;
12869;SDS011;6503;48.572;13.460;2022-12-07T05:41:43;14.85;;;10.13;;
12869;SDS011;6503;48.572;13.460;2022-12-07T05:44:29;18.08;;;10.07;;
12869;SDS011;6503;48.572;13.460;2022-12-07T05:46:56;16.10;;;10.93;;
12869;SDS011;6503;48.572;13.460;2022-12-07T05:49:23;15.00;;;9.90;;
12869;SDS011;6503;48.572;13.460;2022-12-07T05:51:52;14.35;;;10.35;;
12869;SDS011;6503;48.572;13.460;2022-12-07T05:54:19;13.85;;;9.55;;
12869;SDS011;6503;48.572;13.460;2022-12-07T05:56:50;14.00;;;9.73;;
12869;SDS011;6503;48.572;13.460;2022-12-07T05:59:17;13.75;;;9.90;;
12869;SDS011;6503;48.572;13.460;2022-12-07T06:01:51;14.98;;;10.32;;
12869;SDS011;6503;48.572;13.460;2022-12-07T06:04:19;17.88;;;10.00;;
12869;SDS011;6503;48.572;13.460;2022-12-07T06:06:48;15.82;;;10.15;;
12869;SDS011;6503;48.572;13.460;2022-12-07T06:09:18;14.13;;;9.68;;
12869;SDS011;6503;48.572;13.460;2022-12-07T06:11:47;16.15;;;10.48;;
12869;SDS011;6503;48.572;13.460;2022-12-07T06:14:34;12.82;;;9.40;;
12869;SDS011;6503;48.572;13.460;2022-12-07T06:17:01;17.60;;;10.18;;
12869;SDS011;6503;48.572;13.460;2022-12-07T06:19:30;17.20;;;10.55;;
12869;SDS011;6503;48.572;13.460;2022-12-07T06:21:58;14.55;;;9.30;;
12869;SDS011;6503;48.572;13.460;2022-12-07T06:24:29;16.17;;;10.40;;
12869;SDS011;6503;48.572;13.460;2022-12-07T06:26:59;18.88;;;11.60;;
12869;SDS011;6503;48.572;13.460;2022-12-07T06:29:26;16.23;;;10.63;;
12869;SDS011;6503;48.572;13.460;2022-12-07T06:31:55;20.17;;;11.52;;
12869;SDS011;6503;48.572;13.460;2022-12-07T06:34:22;15.65;;;10.48;;
12869;SDS011;6503;48.572;13.460;2022-12-07T06:37:14;17.55;;;10.90;;
12869;SDS011;6503;48.572;13.460;2022-12-07T06:39:41;17.23;;;11.68;;
12869;SDS011;6503;48.572;13.460;2022-12-07T06:42:11;16.65;;;10.85;;
12869;SDS011;6503;48.572;13.460;2022-12-07T06:44:43;17.80;;;11.52;;
12869;SDS011;6503;48.572;13.460;2022-12-07T06:47:24;16.27;;;10.68;;
12869;SDS011;6503;48.572;13.460;2022-12-07T06:49:51;16.65;;;11.55;;
12869;SDS011;6503;48.572;13.460;2022-12-07T06:52:19;18.27;;;11.48;;
12869;SDS011;6503;48.572;13.460;2022-12-07T06:54:48;23.35;;;11.75;;
12869;SDS011;6503;48.572;13.460;2022-12-07T06:57:19;17.40;;;12.25;;
12869;SDS011;6503;48.572;13.460;2022-12-07T06:59:46;18.73;;;11.18;;
12869;SDS011;6503;48.572;13.460;2022-12-07T07:02:15;17.73;;;11.85;;
12869;SDS011;6503;48.572;13.460;2022-12-07T07:04:42;17.38;;;10.73;;
12869;SDS011;6503;48.572;13.460;2022-12-07T07:07:11;16.85;;;10.63;;
12869;SDS011;6503;48.572;13.460;2022-12-07T07:09:56;14.13;;;10.55;;
12869;SDS011;6503;48.572;13.460;2022-12-07T07:12:25;18.85;;;11.70;;
12869;SDS011;6503;48.572;13.460;2022-12-07T07:14:54;18.13;;;11.60;;
12869;SDS011;6503;48.572;13.460;2022-12-07T07:17:26;16.15;;;11.23;;
12869;SDS011;6503;48.572;13.460;2022-12-07T07:19:54;17.83;;;11.48;;
12869;SDS011;6503;48.572;13.460;2022-12-07T07:22:26;18.35;;;11.43;;
12869;SDS011;6503;48.572;13.460;2022-12-07T07:24:56;18.65;;;11.48;;
12869;SDS011;6503;48.572;13.460;2022-12-07T07:27:32;16.60;;;11.32;;
12869;SDS011;6503;48.572;13.460;2022-12-07T07:30:03;18.88;;;11.75;;
12869;SDS011;6503;48.572;13.460;2022-12-07T07:32:33;16.20;;;10.57;;
12869;SDS011;6503;48.572;13.460;2022-12-07T07:35:03;18.15;;;10.80;;
12869;SDS011;6503;48.572;13.460;2022-12-07T07:37:49;20.50;;;11.82;;
12869;SDS011;6503;48.572;13.460;2022-12-07T07:40:16;18.95;;;12.77;;
12869;SDS011;6503;48.572;13.460;2022-12-07T07:42:56;21.90;;;12.63;;
12869;SDS011;6503;48.572;13.460;2022-12-07T07:45:24;25.98;;;13.23;;
12869;SDS011;6503;48.572;13.460;2022-12-07T07:47:57;19.88;;;12.70;;
12869;SDS011;6503;48.572;13.460;2022-12-07T07:50:24;19.35;;;11.88;;
12869;SDS011;6503;48.572;13.460;2022-12-07T07:52:52;18.70;;;12.05;;
12869;SDS011;6503;48.572;13.460;2022-12-07T07:55:21;17.52;;;11.65;;
12869;SDS011;6503;48.572;13.460;2022-12-07T07:57:49;15.65;;;10.48;;
12869;SDS011;6503;48.572;13.460;2022-12-07T08:00:18;15.90;;;10.82;;
12869;SDS011;6503;48.572;13.460;2022-12-07T08:02:46;19.50;;;11.90;;
12869;SDS011;6503;48.572;13.460;2022-12-07T08:05:15;16.40;;;10.60;;
12869;SDS011;6503;48.572;13.460;2022-12-07T08:07:47;16.45;;;11.15;;
12869;SDS011;6503;48.572;13.460;2022-12-07T08:10:15;20.95;;;12.38;;
12869;SDS011;6503;48.572;13.460;2022-12-07T08:12:43;19.90;;;12.18;;
12869;SDS011;6503;48.572;13.460;2022-12-07T08:15:29;17.25;;;11.00;;
12869;SDS011;6503;48.572;13.460;2022-12-07T08:18:01;18.48;;;11.02;;
12869;SDS011;6503;48.572;13.460;2022-12-07T08:20:32;18.15;;;11.30;;
12869;SDS011;6503;48.572;13.460;2022-12-07T08:23:00;17.65;;;11.35;;
12869;SDS011;6503;48.572;13.460;2022-12-07T08:25:29;19.83;;;11.68;;
12869;SDS011;6503;48.572;13.460;2022-12-07T08:27:56;18.55;;;11.82;;
12869;SDS011;6503;48.572;13.460;2022-12-07T08:30:23;22.73;;;12.32;;
12869;SDS011;6503;48.572;13.460;2022-12-07T08:32:52;19.23;;;11.98;;
12869;SDS011;6503;48.572;13.460;2022-12-07T08:35:25;15.80;;;11.30;;
12869;SDS011;6503;48.572;13.460;2022-12-07T08:37:56;17.55;;;11.15;;
12869;SDS011;6503;48.572;13.460;2022-12-07T08:40:24;17.30;;;11.15;;
12869;SDS011;6503;48.572;13.460;2022-12-07T08:42:54;18.52;;;11.25;;
12869;SDS011;6503;48.572;13.460;2022-12-07T08:45:23;14.45;;;10.18;;
12869;SDS011;6503;48.572;13.460;2022-12-07T08:48:03;17.45;;;11.13;;
12869;SDS011;6503;48.572;13.460;2022-12-07T08:50:36;18.73;;;11.93;;
12869;SDS011;6503;48.572;13.460;2022-12-07T08:53:05;15.18;;;10.50;;
12869;SDS011;6503;48.572;13.460;2022-12-07T08:55:36;17.90;;;11.65;;
12869;SDS011;6503;48.572;13.460;2022-12-07T08:58:10;16.27;;;10.15;;
12869;SDS011;6503;48.572;13.460;2022-12-07T09:00:44;16.52;;;10.00;;
12869;SDS011;6503;48.572;13.460;2022-12-07T09:03:15;16.35;;;10.43;;
12869;SDS011;6503;48.572;13.460;2022-12-07T09:05:44;15.40;;;10.45;;
12869;SDS011;6503;48.572;13.460;2022-12-07T09:08:14;18.23;;;11.00;;
12869;SDS011;6503;48.572;13.460;2022-12-07T09:10:43;15.68;;;9.93;;
12869;SDS011;6503;48.572;13.460;2022-12-07T09:13:11;15.35;;;10.15;;
12869;SDS011;6503;48.572;13.460;2022-12-07T09:15:38;18.08;;;11.20;;
12869;SDS011;6503;48.572;13.460;2022-12-07T09:18:05;16.60;;;10.38;;
12869;SDS011;6503;48.572;13.460;2022-12-07T09:20:35;15.45;;;9.38;;
12869;SDS011;6503;48.572;13.460;2022-12-07T09:23:05;17.52;;;10.27;;
12869;SDS011;6503;48.572;13.460;2022-12-07T09:25:36;14.35;;;9.65;;
12869;SDS011;6503;48.572;13.460;2022-12-07T09:28:03;15.23;;;10.48;;
12869;SDS011;6503;48.572;13.460;2022-12-07T09:30:32;17.45;;;9.90;;
12869;SDS011;6503;48.572;13.460;2022-12-07T09:33:02;15.02;;;10.27;;
12869;SDS011;6503;48.572;13.460;2022-12-07T09:35:30;14.55;;;9.82;;
12869;SDS011;6503;48.572;13.460;2022-12-07T09:38:00;13.50;;;9.23;;
12869;SDS011;6503;48.572;13.460;2022-12-07T09:40:30;16.08;;;10.65;;
12869;SDS011;6503;48.572;13.460;2022-12-07T09:43:02;16.33;;;9.80;;
12869;SDS011;6503;48.572;13.460;2022-12-07T09:45:32;17.67;;;11.30;;
12869;SDS011;6503;48.572;13.460;2022-12-07T09:48:08;14.90;;;10.60;;
12869;SDS011;6503;48.572;13.460;2022-12-07T09:50:52;16.27;;;10.18;;
12869;SDS011;6503;48.572;13.460;2022-12-07T09:53:25;17.65;;;11.40;;
12869;SDS011;6503;48.572;13.460;2022-12-07T09:55:56;15.90;;;10.40;;
12869;SDS011;6503;48.572;13.460;2022-12-07T09:58:24;15.60;;;11.18;;
12869;SDS011;6503;48.572;13.460;2022-12-07T10:00:55;16.65;;;10.43;;
12869;SDS011;6503;48.572;13.460;2022-12-07T10:03:29;18.60;;;11.32;;
12869;SDS011;6503;48.572;13.460;2022-12-07T10:05:57;15.10;;;9.43;;
12869;SDS011;6503;48.572;13.460;2022-12-07T10:08:27;16.55;;;10.63;;
12869;SDS011;6503;48.572;13.460;2022-12-07T10:11:02;15.02;;;10.10;;
12869;SDS011;6503;48.572;13.460;2022-12-07T10:13:37;13.10;;;8.57;;
12869;SDS011;6503;48.572;13.460;2022-12-07T10:16:25;15.88;;;10.18;;
12869;SDS011;6503;48.572;13.460;2022-12-07T10:22:00;17.50;;;9.57;;
12869;SDS011;6503;48.572;13.460;2022-12-07T10:24:37;13.75;;;9.10;;
12869;SDS011;6503;48.572;13.460;2022-12-07T10:27:16;13.70;;;9.88;;
12869;SDS011;6503;48.572;13.460;2022-12-07T10:29:47;16.63;;;10.03;;
12869;SDS011;6503;48.572;13.460;2022-12-07T10:35:24;18.33;;;11.02;;
12869;SDS011;6503;48.572;13.460;2022-12-07T10:38:17;16.45;;;10.23;;
12869;SDS011;6503;48.572;13.460;2022-12-07T10:43:57;13.73;;;9.85;;
12869;SDS011;6503;48.572;13.460;2022-12-07T10:46:39;15.13;;;9.90;;
12869;SDS011;6503;48.572;13.460;2022-12-07T10:52:45;17.52;;;10.02;;
12869;SDS011;6503;48.572;13.460;2022-12-07T10:55:40;17.05;;;9.73;;
12869;SDS011;6503;48.572;13.460;2022-12-07T10:58:31;15.60;;;9.63;;
12869;SDS011;6503;48.572;13.460;2022-12-07T11:01:08;14.25;;;8.02;;
12869;SDS011;6503;48.572;13.460;2022-12-07T11:03:48;15.63;;;8.43;;
12869;SDS011;6503;48.572;13.460;2022-12-07T11:06:27;12.95;;;8.88;;
12869;SDS011;6503;48.572;13.460;2022-12-07T11:09:08;13.40;;;8.80;;
12869;SDS011;6503;48.572;13.460;2022-12-07T11:12:27;14.43;;;9.30;;
12869;SDS011;6503;48.572;13.460;2022-12-07T11:15:24;12.98;;;9.52;;
12869;SDS011;6503;48.572;13.460;2022-12-07T11:17:59;12.85;;;8.35;;
12869;SDS011;6503;48.572;13.460;2022-12-07T11:20:37;15.68;;;8.98;;
12869;SDS011;6503;48.572;13.460;2022-12-07T11:23:16;16.48;;;9.93;;
12869;SDS011;6503;48.572;13.460;2022-12-07T11:25:54;15.70;;;9.48;;
12869;SDS011;6503;48.572;13.460;2022-12-07T11:28:36;17.13;;;9.50;;
12869;SDS011;6503;48.572;13.460;2022-12-07T11:31:33;14.07;;;9.10;;
12869;SDS011;6503;48.572;13.460;2022-12-07T11:34:15;13.80;;;9.00;;
12869;SDS011;6503;48.572;13.460;2022-12-07T11:36:53;15.15;;;9.35;;
12869;SDS011;6503;48.572;13.460;2022-12-07T11:39:24;15.50;;;9.68;;
12869;SDS011;6503;48.572;13.460;2022-12-07T11:42:06;15.90;;;9.82;;
12869;SDS011;6503;48.572;13.460;2022-12-07T11:44:46;19.05;;;11.52;;
12869;SDS011;6503;48.572;13.460;2022-12-07T11:47:30;17.17;;;10.48;;
12869;SDS011;6503;48.572;13.460;2022-12-07T11:50:13;20.85;;;11.98;;
12869;SDS011;6503;48.572;13.460;2022-12-07T11:53:00;17.30;;;11.35;;
12869;SDS011;6503;48.572;13.460;2022-12-07T11:56:11;14.68;;;9.50;;
12869;SDS011;6503;48.572;13.460;2022-12-07T11:59:23;14.73;;;9.52;;
12869;SDS011;6503;48.572;13.460;2022-12-07T12:02:23;18.83;;;9.25;;
12869;SDS011;6503;48.572;13.460;2022-12-07T12:05:15;13.30;;;8.15;;
12869;SDS011;6503;48.572;13.460;2022-12-07T12:07:57;12.65;;;8.20;;
12869;SDS011;6503;48.572;13.460;2022-12-07T12:11:00;13.63;;;9.10;;
12869;SDS011;6503;48.572;13.460;2022-12-07T12:13:47;17.35;;;9.52;;
12869;SDS011;6503;48.572;13.460;2022-12-07T12:17:01;17.92;;;9.73;;
12869;SDS011;6503;48.572;13.460;2022-12-07T12:20:21;19.50;;;13.40;;
12869;SDS011;6503;48.572;13.460;2022-12-07T12:22:58;22.98;;;17.23;;
12869;SDS011;6503;48.572;13.460;2022-12-07T12:25:45;15.57;;;9.05;;
12869;SDS011;6503;48.572;13.460;2022-12-07T12:28:23;13.63;;;8.57;;
12869;SDS011;6503;48.572;13.460;2022-12-07T12:31:08;14.65;;;9.35;;
12869;SDS011;6503;48.572;13.460;2022-12-07T12:46:47;14.00;;;9.20;;
12869;SDS011;6503;48.572;13.460;2022-12-07T12:49:37;14.60;;;9.40;;
12869;SDS011;6503;48.572;13.460;2022-12-07T12:58:50;14.00;;;9.15;;
12869;SDS011;6503;48.572;13.460;2022-12-07T13:02:20;12.15;;;7.90;;
12869;SDS011;6503;48.572;13.460;2022-12-07T13:05:14;15.55;;;9.18;;
12869;SDS011;6503;48.572;13.460;2022-12-07T13:08:04;14.32;;;8.40;;
12869;SDS011;6503;48.572;13.460;2022-12-07T13:10:55;19.73;;;10.05;;
12869;SDS011;6503;48.572;13.460;2022-12-07T13:20:57;13.27;;;8.77;;
12869;SDS011;6503;48.572;13.460;2022-12-07T13:23:54;15.93;;;9.07;;
12869;SDS011;6503;48.572;13.460;2022-12-07T13:26:41;16.30;;;8.65;;
12869;SDS011;6503;48.572;13.460;2022-12-07T13:29:15;15.00;;;9.93;;
12869;SDS011;6503;48.572;13.460;2022-12-07T13:31:47;19.02;;;10.80;;
12869;SDS011;6503;48.572;13.460;2022-12-07T13:34:33;14.02;;;9.70;;
12869;SDS011;6503;48.572;13.460;2022-12-07T13:40:27;14.75;;;9.90;;
12869;SDS011;6503;48.572;13.460;2022-12-07T13:43:12;15.77;;;10.52;;
12869;SDS011;6503;48.572;13.460;2022-12-07T13:46:04;17.38;;;10.13;;
12869;SDS011;6503;48.572;13.460;2022-12-07T13:48:47;14.85;;;10.07;;
12869;SDS011;6503;48.572;13.460;2022-12-07T13:51:22;16.05;;;10.40;;
12869;SDS011;6503;48.572;13.460;2022-12-07T13:53:55;16.27;;;9.68;;
12869;SDS011;6503;48.572;13.460;2022-12-07T13:56:32;16.60;;;9.25;;
12869;SDS011;6503;48.572;13.460;2022-12-07T13:59:35;15.45;;;9.32;;
12869;SDS011;6503;48.572;13.460;2022-12-07T14:02:16;14.33;;;9.20;;
12869;SDS011;6503;48.572;13.460;2022-12-07T14:04:49;14.80;;;9.30;;
12869;SDS011;6503;48.572;13.460;2022-12-07T14:07:35;14.05;;;9.10;;
12869;SDS011;6503;48.572;13.460;2022-12-07T14:10:39;16.23;;;9.32;;
12869;SDS011;6503;48.572;13.460;2022-12-07T14:13:26;13.88;;;8.60;;
12869;SDS011;6503;48.572;13.460;2022-12-07T14:16:17;13.77;;;8.80;;
12869;SDS011;6503;48.572;13.460;2022-12-07T14:18:58;12.65;;;9.00;;
12869;SDS011;6503;48.572;13.460;2022-12-07T14:21:28;14.73;;;9.23;;
12869;SDS011;6503;48.572;13.460;2022-12-07T14:24:11;14.70;;;9.38;;
12869;SDS011;6503;48.572;13.460;2022-12-07T14:26:47;13.15;;;8.77;;
12869;SDS011;6503;48.572;13.460;2022-12-07T14:29:21;14.82;;;9.00;;
12869;SDS011;6503;48.572;13.460;2022-12-07T14:31:56;12.52;;;8.55;;
12869;SDS011;6503;48.572;13.460;2022-12-07T14:34:56;25.48;;;14.05;;
12869;SDS011;6503;48.572;13.460;2022-12-07T14:37:26;13.18;;;8.68;;
12869;SDS011;6503;48.572;13.460;2022-12-07T14:40:07;13.43;;;9.20;;
12869;SDS011;6503;48.572;13.460;2022-12-07T14:42:48;16.65;;;9.70;;
12869;SDS011;6503;48.572;13.460;2022-12-07T14:45:19;21.30;;;10.35;;
12869;SDS011;6503;48.572;13.460;2022-12-07T14:47:48;15.55;;;10.73;;
12869;SDS011;6503;48.572;13.460;2022-12-07T14:50:20;18.98;;;9.73;;
12869;SDS011;6503;48.572;13.460;2022-12-07T14:52:53;15.00;;;8.90;;
12869;SDS011;6503;48.572;13.460;2022-12-07T14:55:25;15.57;;;9.38;;
12869;SDS011;6503;48.572;13.460;2022-12-07T14:58:09;14.50;;;9.30;;
12869;SDS011;6503;48.572;13.460;2022-12-07T15:01:00;13.85;;;9.13;;
12869;SDS011;6503;48.572;13.460;2022-12-07T15:03:33;14.65;;;9.13;;
12869;SDS011;6503;48.572;13.460;2022-12-07T15:06:13;14.63;;;9.35;;
12869;SDS011;6503;48.572;13.460;2022-12-07T15:08:59;12.45;;;8.40;;
12869;SDS011;6503;48.572;13.460;2022-12-07T15:11:31;11.88;;;8.27;;
12869;SDS011;6503;48.572;13.460;2022-12-07T15:14:05;15.25;;;9.38;;
12869;SDS011;6503;48.572;13.460;2022-12-07T15:16:38;14.55;;;9.70;;
12869;SDS011;6503;48.572;13.460;2022-12-07T15:19:10;14.27;;;9.20;;
12869;SDS011;6503;48.572;13.460;2022-12-07T15:21:51;14.65;;;9.90;;
12869;SDS011;6503;48.572;13.460;2022-12-07T15:24:19;14.50;;;10.13;;
12869;SDS011;6503;48.572;13.460;2022-12-07T15:26:49;13.57;;;9.13;;
12869;SDS011;6503;48.572;13.460;2022-12-07T15:29:19;12.30;;;8.68;;
12869;SDS011;6503;48.572;13.460;2022-12-07T15:31:47;14.38;;;9.00;;
12869;SDS011;6503;48.572;13.460;2022-12-07T15:34:17;19.48;;;11.20;;
12869;SDS011;6503;48.572;13.460;2022-12-07T15:36:56;13.73;;;8.60;;
12869;SDS011;6503;48.572;13.460;2022-12-07T15:39:27;14.32;;;9.63;;
12869;SDS011;6503;48.572;13.460;2022-12-07T15:41:57;14.63;;;9.25;;
12869;SDS011;6503;48.572;13.460;2022-12-07T15:44:30;14.63;;;9.55;;
12869;SDS011;6503;48.572;13.460;2022-12-07T15:47:14;14.40;;;9.55;;
12869;SDS011;6503;48.572;13.460;2022-12-07T15:49:42;18.90;;;10.23;;
12869;SDS011;6503;48.572;13.460;2022-12-07T15:52:09;16.95;;;9.90;;
12869;SDS011;6503;48.572;13.460;2022-12-07T15:54:37;13.95;;;9.05;;
12869;SDS011;6503;48.572;13.460;2022-12-07T15:57:08;14.85;;;8.98;;
12869;SDS011;6503;48.572;13.460;2022-12-07T15:59:40;13.52;;;9.43;;
12869;SDS011;6503;48.572;13.460;2022-12-07T16:02:08;14.98;;;9.23;;
12869;SDS011;6503;48.572;13.460;2022-12-07T16:04:41;13.38;;;8.48;;
12869;SDS011;6503;48.572;13.460;2022-12-07T16:07:08;16.95;;;9.50;;
12869;SDS011;6503;48.572;13.460;2022-12-07T16:09:36;14.38;;;8.60;;
12869;SDS011;6503;48.572;13.460;2022-12-07T16:12:04;13.77;;;9.10;;
12869;SDS011;6503;48.572;13.460;2022-12-07T16:14:32;13.65;;;9.30;;
12869;SDS011;6503;48.572;13.460;2022-12-07T16:17:09;12.38;;;8.80;;